sensor_id;sensor_type;location;lat;lon;timestamp;P1;P2;P0
73565;PMS5003;61846;52.970;-3.168;2023-04-03T00:01:53;13;12;
73565;PMS5003;61846;52.970;-3.168;2023-04-03T00:04:19;9;8;
73565;PMS5003;61846;52.970;-3.168;2023-04-03T00:06:44;11;9;
73565;PMS5003;61846;52.970;-3.168;2023-04-03T00:09:10;12;9;
73565;PMS5003;61846;52.970;-3.168;2023-04-03T00:11:35;9;9;
73565;PMS5003;61846;52.970;-3.168;2023-04-03T00:14:02;11;9;
73565;PMS5003;61846;52.970;-3.168;2023-04-03T00:16:27;8;8;
73565;PMS5003;61846;52.970;-3.168;2023-04-03T00:18:52;11;9;
73565;PMS5003;61846;52.970;-3.168;2023-04-03T00:21:18;8;8;
73565;PMS5003;61846;52.970;-3.168;2023-04-03T00:23:43;10;9;
73565;PMS5003;61846;52.970;-3.168;2023-04-03T00:26:09;12;11;
73565;PMS5003;61846;52.970;-3.168;2023-04-03T00:28:34;11;8;
73565;PMS5003;61846;52.970;-3.168;2023-04-03T00:31:00;11;10;
73565;PMS5003;61846;52.970;-3.168;2023-04-03T00:33:26;7;7;
73565;PMS5003;61846;52.970;-3.168;2023-04-03T00:35:51;11;8;
73565;PMS5003;61846;52.970;-3.168;2023-04-03T00:38:17;8;8;
73565;PMS5003;61846;52.970;-3.168;2023-04-03T00:40:43;12;9;
73565;PMS5003;61846;52.970;-3.168;2023-04-03T00:43:10;9;6;
73565;PMS5003;61846;52.970;-3.168;2023-04-03T00:45:34;6;6;
73565;PMS5003;61846;52.970;-3.168;2023-04-03T00:48:00;10;8;
73565;PMS5003;61846;52.970;-3.168;2023-04-03T00:50:26;7;6;
73565;PMS5003;61846;52.970;-3.168;2023-04-03T00:52:51;9;7;
73565;PMS5003;61846;52.970;-3.168;2023-04-03T00:55:16;6;6;
73565;PMS5003;61846;52.970;-3.168;2023-04-03T00:57:42;12;6;
73565;PMS5003;61846;52.970;-3.168;2023-04-03T01:00:09;7;5;
73565;PMS5003;61846;52.970;-3.168;2023-04-03T01:02:33;7;7;
73565;PMS5003;61846;52.970;-3.168;2023-04-03T01:04:59;15;8;
73565;PMS5003;61846;52.970;-3.168;2023-04-03T01:07:26;7;6;
73565;PMS5003;61846;52.970;-3.168;2023-04-03T01:09:51;6;6;
73565;PMS5003;61846;52.970;-3.168;2023-04-03T01:12:16;5;4;
73565;PMS5003;61846;52.970;-3.168;2023-04-03T01:14:41;9;6;
73565;PMS5003;61846;52.970;-3.168;2023-04-03T01:19:33;6;5;
73565;PMS5003;61846;52.970;-3.168;2023-04-03T01:22:05;11;9;
73565;PMS5003;61846;52.970;-3.168;2023-04-03T01:24:27;7;7;
73565;PMS5003;61846;52.970;-3.168;2023-04-03T01:26:49;7;7;
73565;PMS5003;61846;52.970;-3.168;2023-04-03T01:29:14;9;9;
73565;PMS5003;61846;52.970;-3.168;2023-04-03T01:31:43;10;9;
73565;PMS5003;61846;52.970;-3.168;2023-04-03T01:34:05;9;7;
73565;PMS5003;61846;52.970;-3.168;2023-04-03T01:36:31;9;7;
73565;PMS5003;61846;52.970;-3.168;2023-04-03T01:38:57;8;6;
73565;PMS5003;61846;52.970;-3.168;2023-04-03T01:41:22;10;6;
73565;PMS5003;61846;52.970;-3.168;2023-04-03T01:43:48;13;7;
73565;PMS5003;61846;52.970;-3.168;2023-04-03T01:46:13;9;7;
73565;PMS5003;61846;52.970;-3.168;2023-04-03T01:48:39;8;7;
73565;PMS5003;61846;52.970;-3.168;2023-04-03T01:51:05;10;6;
73565;PMS5003;61846;52.970;-3.168;2023-04-03T01:53:30;7;6;
73565;PMS5003;61846;52.970;-3.168;2023-04-03T01:55:56;14;6;
73565;PMS5003;61846;52.970;-3.168;2023-04-03T01:58:21;8;8;
73565;PMS5003;61846;52.970;-3.168;2023-04-03T02:00:46;15;7;
73565;PMS5003;61846;52.970;-3.168;2023-04-03T02:03:12;7;6;
73565;PMS5003;61846;52.970;-3.168;2023-04-03T02:05:38;7;6;
73565;PMS5003;61846;52.970;-3.168;2023-04-03T02:08:03;11;7;
73565;PMS5003;61846;52.970;-3.168;2023-04-03T02:10:29;10;7;
73565;PMS5003;61846;52.970;-3.168;2023-04-03T02:12:54;8;8;
73565;PMS5003;61846;52.970;-3.168;2023-04-03T02:15:20;8;7;
73565;PMS5003;61846;52.970;-3.168;2023-04-03T02:17:46;7;7;
73565;PMS5003;61846;52.970;-3.168;2023-04-03T02:20:11;8;8;
73565;PMS5003;61846;52.970;-3.168;2023-04-03T02:22:37;8;8;
73565;PMS5003;61846;52.970;-3.168;2023-04-03T02:25:03;10;7;
73565;PMS5003;61846;52.970;-3.168;2023-04-03T02:27:28;8;5;
73565;PMS5003;61846;52.970;-3.168;2023-04-03T02:29:53;18;8;
73565;PMS5003;61846;52.970;-3.168;2023-04-03T02:32:19;8;7;
73565;PMS5003;61846;52.970;-3.168;2023-04-03T02:34:45;8;7;
73565;PMS5003;61846;52.970;-3.168;2023-04-03T02:37:10;12;9;
73565;PMS5003;61846;52.970;-3.168;2023-04-03T02:39:36;11;8;
73565;PMS5003;61846;52.970;-3.168;2023-04-03T02:42:02;8;7;
73565;PMS5003;61846;52.970;-3.168;2023-04-03T02:44:27;8;8;
73565;PMS5003;61846;52.970;-3.168;2023-04-03T02:46:53;9;7;
73565;PMS5003;61846;52.970;-3.168;2023-04-03T02:49:18;7;6;
73565;PMS5003;61846;52.970;-3.168;2023-04-03T02:51:44;8;8;
73565;PMS5003;61846;52.970;-3.168;2023-04-03T02:54:09;9;7;
73565;PMS5003;61846;52.970;-3.168;2023-04-03T02:56:34;7;7;
73565;PMS5003;61846;52.970;-3.168;2023-04-03T02:59:00;8;6;
73565;PMS5003;61846;52.970;-3.168;2023-04-03T03:01:25;9;6;
73565;PMS5003;61846;52.970;-3.168;2023-04-03T03:03:51;7;7;
73565;PMS5003;61846;52.970;-3.168;2023-04-03T03:06:17;7;7;
73565;PMS5003;61846;52.970;-3.168;2023-04-03T03:08:43;9;7;
73565;PMS5003;61846;52.970;-3.168;2023-04-03T03:11:09;9;7;
73565;PMS5003;61846;52.970;-3.168;2023-04-03T03:13:34;13;8;
73565;PMS5003;61846;52.970;-3.168;2023-04-03T03:16:00;6;5;
73565;PMS5003;61846;52.970;-3.168;2023-04-03T03:18:25;5;5;
73565;PMS5003;61846;52.970;-3.168;2023-04-03T03:20:51;9;7;
73565;PMS5003;61846;52.970;-3.168;2023-04-03T03:23:16;6;6;
73565;PMS5003;61846;52.970;-3.168;2023-04-03T03:25:42;10;9;
73565;PMS5003;61846;52.970;-3.168;2023-04-03T03:28:08;11;7;
73565;PMS5003;61846;52.970;-3.168;2023-04-03T03:30:34;9;6;
73565;PMS5003;61846;52.970;-3.168;2023-04-03T03:32:59;11;9;
73565;PMS5003;61846;52.970;-3.168;2023-04-03T03:35:25;8;7;
73565;PMS5003;61846;52.970;-3.168;2023-04-03T03:37:51;10;8;
73565;PMS5003;61846;52.970;-3.168;2023-04-03T03:40:17;9;7;
73565;PMS5003;61846;52.970;-3.168;2023-04-03T03:42:42;7;7;
73565;PMS5003;61846;52.970;-3.168;2023-04-03T03:45:08;10;9;
73565;PMS5003;61846;52.970;-3.168;2023-04-03T03:47:33;9;9;
73565;PMS5003;61846;52.970;-3.168;2023-04-03T03:49:59;15;9;
73565;PMS5003;61846;52.970;-3.168;2023-04-03T03:52:25;8;7;
73565;PMS5003;61846;52.970;-3.168;2023-04-03T03:54:50;11;9;
73565;PMS5003;61846;52.970;-3.168;2023-04-03T03:57:16;10;10;
73565;PMS5003;61846;52.970;-3.168;2023-04-03T03:59:42;9;9;
73565;PMS5003;61846;52.970;-3.168;2023-04-03T04:02:08;13;11;
73565;PMS5003;61846;52.970;-3.168;2023-04-03T04:04:33;10;10;
73565;PMS5003;61846;52.970;-3.168;2023-04-03T04:06:59;8;8;
73565;PMS5003;61846;52.970;-3.168;2023-04-03T04:09:24;10;10;
73565;PMS5003;61846;52.970;-3.168;2023-04-03T04:11:50;14;13;
73565;PMS5003;61846;52.970;-3.168;2023-04-03T04:14:15;14;13;
73565;PMS5003;61846;52.970;-3.168;2023-04-03T04:16:40;12;12;
73565;PMS5003;61846;52.970;-3.168;2023-04-03T04:19:06;10;9;
73565;PMS5003;61846;52.970;-3.168;2023-04-03T04:21:32;10;10;
73565;PMS5003;61846;52.970;-3.168;2023-04-03T04:23:57;9;9;
73565;PMS5003;61846;52.970;-3.168;2023-04-03T04:26:23;10;9;
73565;PMS5003;61846;52.970;-3.168;2023-04-03T04:28:49;9;8;
73565;PMS5003;61846;52.970;-3.168;2023-04-03T04:31:14;9;8;
73565;PMS5003;61846;52.970;-3.168;2023-04-03T04:33:40;11;11;
73565;PMS5003;61846;52.970;-3.168;2023-04-03T04:36:06;12;10;
73565;PMS5003;61846;52.970;-3.168;2023-04-03T04:38:31;12;11;
73565;PMS5003;61846;52.970;-3.168;2023-04-03T04:40:56;17;10;
73565;PMS5003;61846;52.970;-3.168;2023-04-03T04:43:21;14;12;
73565;PMS5003;61846;52.970;-3.168;2023-04-03T04:45:47;12;10;
73565;PMS5003;61846;52.970;-3.168;2023-04-03T04:48:12;13;13;
73565;PMS5003;61846;52.970;-3.168;2023-04-03T04:50:38;15;12;
73565;PMS5003;61846;52.970;-3.168;2023-04-03T04:53:04;15;13;
73565;PMS5003;61846;52.970;-3.168;2023-04-03T04:55:29;18;15;
73565;PMS5003;61846;52.970;-3.168;2023-04-03T04:57:55;14;13;
73565;PMS5003;61846;52.970;-3.168;2023-04-03T05:00:21;25;13;
73565;PMS5003;61846;52.970;-3.168;2023-04-03T05:02:45;21;13;
73565;PMS5003;61846;52.970;-3.168;2023-04-03T05:05:10;14;12;
73565;PMS5003;61846;52.970;-3.168;2023-04-03T05:07:36;16;13;
73565;PMS5003;61846;52.970;-3.168;2023-04-03T05:10:02;12;12;
73565;PMS5003;61846;52.970;-3.168;2023-04-03T05:12:27;15;13;
73565;PMS5003;61846;52.970;-3.168;2023-04-03T05:14:53;12;10;
73565;PMS5003;61846;52.970;-3.168;2023-04-03T05:17:19;12;10;
73565;PMS5003;61846;52.970;-3.168;2023-04-03T05:19:45;11;11;
73565;PMS5003;61846;52.970;-3.168;2023-04-03T05:22:10;12;12;
73565;PMS5003;61846;52.970;-3.168;2023-04-03T05:24:35;14;11;
73565;PMS5003;61846;52.970;-3.168;2023-04-03T05:27:00;12;10;
73565;PMS5003;61846;52.970;-3.168;2023-04-03T05:29:26;27;19;
73565;PMS5003;61846;52.970;-3.168;2023-04-03T05:31:51;39;26;
73565;PMS5003;61846;52.970;-3.168;2023-04-03T05:34:17;34;26;
73565;PMS5003;61846;52.970;-3.168;2023-04-03T05:36:42;21;14;
73565;PMS5003;61846;52.970;-3.168;2023-04-03T05:39:08;11;11;
73565;PMS5003;61846;52.970;-3.168;2023-04-03T05:41:33;16;15;
73565;PMS5003;61846;52.970;-3.168;2023-04-03T05:43:59;13;12;
73565;PMS5003;61846;52.970;-3.168;2023-04-03T05:46:24;22;19;
73565;PMS5003;61846;52.970;-3.168;2023-04-03T05:48:50;13;12;
73565;PMS5003;61846;52.970;-3.168;2023-04-03T05:51:15;15;12;
73565;PMS5003;61846;52.970;-3.168;2023-04-03T05:53:40;11;11;
73565;PMS5003;61846;52.970;-3.168;2023-04-03T05:56:06;17;12;
73565;PMS5003;61846;52.970;-3.168;2023-04-03T05:58:31;15;13;
73565;PMS5003;61846;52.970;-3.168;2023-04-03T06:00:57;17;14;
73565;PMS5003;61846;52.970;-3.168;2023-04-03T06:03:23;21;17;
73565;PMS5003;61846;52.970;-3.168;2023-04-03T06:05:49;17;17;
73565;PMS5003;61846;52.970;-3.168;2023-04-03T06:08:15;15;13;
73565;PMS5003;61846;52.970;-3.168;2023-04-03T06:10:40;21;17;
73565;PMS5003;61846;52.970;-3.168;2023-04-03T06:13:05;18;13;
73565;PMS5003;61846;52.970;-3.168;2023-04-03T06:15:31;14;14;
73565;PMS5003;61846;52.970;-3.168;2023-04-03T06:17:56;14;14;
73565;PMS5003;61846;52.970;-3.168;2023-04-03T06:20:22;16;12;
73565;PMS5003;61846;52.970;-3.168;2023-04-03T06:22:48;18;15;
73565;PMS5003;61846;52.970;-3.168;2023-04-03T06:25:13;22;15;
73565;PMS5003;61846;52.970;-3.168;2023-04-03T06:27:39;15;15;
73565;PMS5003;61846;52.970;-3.168;2023-04-03T06:30:05;15;12;
73565;PMS5003;61846;52.970;-3.168;2023-04-03T06:32:29;13;10;
73565;PMS5003;61846;52.970;-3.168;2023-04-03T06:34:55;20;15;
73565;PMS5003;61846;52.970;-3.168;2023-04-03T06:37:21;20;13;
73565;PMS5003;61846;52.970;-3.168;2023-04-03T06:39:46;21;12;
73565;PMS5003;61846;52.970;-3.168;2023-04-03T06:42:11;17;13;
73565;PMS5003;61846;52.970;-3.168;2023-04-03T06:44:36;13;11;
73565;PMS5003;61846;52.970;-3.168;2023-04-03T06:47:02;15;13;
73565;PMS5003;61846;52.970;-3.168;2023-04-03T06:49:27;13;12;
73565;PMS5003;61846;52.970;-3.168;2023-04-03T06:51:53;17;9;
73565;PMS5003;61846;52.970;-3.168;2023-04-03T06:54:18;12;11;
73565;PMS5003;61846;52.970;-3.168;2023-04-03T06:56:44;10;9;
73565;PMS5003;61846;52.970;-3.168;2023-04-03T06:59:10;16;13;
73565;PMS5003;61846;52.970;-3.168;2023-04-03T07:01:36;15;12;
73565;PMS5003;61846;52.970;-3.168;2023-04-03T07:04:02;8;8;
73565;PMS5003;61846;52.970;-3.168;2023-04-03T07:06:27;15;10;
73565;PMS5003;61846;52.970;-3.168;2023-04-03T07:08:53;8;8;
73565;PMS5003;61846;52.970;-3.168;2023-04-03T07:11:18;12;10;
73565;PMS5003;61846;52.970;-3.168;2023-04-03T07:13:44;11;9;
73565;PMS5003;61846;52.970;-3.168;2023-04-03T07:16:10;12;12;
73565;PMS5003;61846;52.970;-3.168;2023-04-03T07:18:36;14;11;
73565;PMS5003;61846;52.970;-3.168;2023-04-03T07:21:02;12;10;
73565;PMS5003;61846;52.970;-3.168;2023-04-03T07:23:27;7;4;
73565;PMS5003;61846;52.970;-3.168;2023-04-03T07:25:53;7;7;
73565;PMS5003;61846;52.970;-3.168;2023-04-03T07:28:20;9;8;
73565;PMS5003;61846;52.970;-3.168;2023-04-03T07:30:44;6;5;
73565;PMS5003;61846;52.970;-3.168;2023-04-03T07:33:10;12;9;
73565;PMS5003;61846;52.970;-3.168;2023-04-03T07:35:35;12;9;
73565;PMS5003;61846;52.970;-3.168;2023-04-03T07:38:00;14;7;
73565;PMS5003;61846;52.970;-3.168;2023-04-03T07:40:26;12;9;
73565;PMS5003;61846;52.970;-3.168;2023-04-03T07:42:51;5;5;
73565;PMS5003;61846;52.970;-3.168;2023-04-03T07:45:17;9;5;
73565;PMS5003;61846;52.970;-3.168;2023-04-03T07:47:42;6;6;
73565;PMS5003;61846;52.970;-3.168;2023-04-03T07:50:08;17;8;
73565;PMS5003;61846;52.970;-3.168;2023-04-03T07:52:33;7;5;
73565;PMS5003;61846;52.970;-3.168;2023-04-03T07:54:59;6;6;
73565;PMS5003;61846;52.970;-3.168;2023-04-03T07:57:25;11;4;
73565;PMS5003;61846;52.970;-3.168;2023-04-03T07:59:50;9;5;
73565;PMS5003;61846;52.970;-3.168;2023-04-03T08:02:15;9;5;
73565;PMS5003;61846;52.970;-3.168;2023-04-03T08:04:40;8;7;
73565;PMS5003;61846;52.970;-3.168;2023-04-03T08:07:06;5;4;
73565;PMS5003;61846;52.970;-3.168;2023-04-03T08:09:32;6;4;
73565;PMS5003;61846;52.970;-3.168;2023-04-03T08:11:57;6;4;
73565;PMS5003;61846;52.970;-3.168;2023-04-03T08:14:23;9;9;
73565;PMS5003;61846;52.970;-3.168;2023-04-03T08:16:49;7;5;
73565;PMS5003;61846;52.970;-3.168;2023-04-03T08:19:14;26;18;
73565;PMS5003;61846;52.970;-3.168;2023-04-03T08:21:40;5;5;
73565;PMS5003;61846;52.970;-3.168;2023-04-03T08:24:06;4;4;
73565;PMS5003;61846;52.970;-3.168;2023-04-03T08:26:31;5;5;
73565;PMS5003;61846;52.970;-3.168;2023-04-03T08:28:57;9;5;
73565;PMS5003;61846;52.970;-3.168;2023-04-03T08:31:23;7;5;
73565;PMS5003;61846;52.970;-3.168;2023-04-03T08:33:48;7;5;
73565;PMS5003;61846;52.970;-3.168;2023-04-03T08:36:17;6;6;
73565;PMS5003;61846;52.970;-3.168;2023-04-03T08:38:39;4;4;
73565;PMS5003;61846;52.970;-3.168;2023-04-03T08:41:06;7;5;
73565;PMS5003;61846;52.970;-3.168;2023-04-03T08:43:31;12;6;
73565;PMS5003;61846;52.970;-3.168;2023-04-03T08:45:55;5;5;
73565;PMS5003;61846;52.970;-3.168;2023-04-03T08:48:21;9;6;
73565;PMS5003;61846;52.970;-3.168;2023-04-03T08:50:47;6;4;
73565;PMS5003;61846;52.970;-3.168;2023-04-03T08:53:14;7;5;
73565;PMS5003;61846;52.970;-3.168;2023-04-03T08:55:39;10;8;
73565;PMS5003;61846;52.970;-3.168;2023-04-03T08:58:05;10;8;
73565;PMS5003;61846;52.970;-3.168;2023-04-03T09:00:41;10;6;
73565;PMS5003;61846;52.970;-3.168;2023-04-03T09:02:55;7;6;
73565;PMS5003;61846;52.970;-3.168;2023-04-03T09:05:24;8;6;
73565;PMS5003;61846;52.970;-3.168;2023-04-03T09:07:47;5;5;
73565;PMS5003;61846;52.970;-3.168;2023-04-03T09:10:12;13;7;
73565;PMS5003;61846;52.970;-3.168;2023-04-03T09:12:38;4;4;
73565;PMS5003;61846;52.970;-3.168;2023-04-03T09:15:05;8;8;
73565;PMS5003;61846;52.970;-3.168;2023-04-03T09:17:33;8;7;
73565;PMS5003;61846;52.970;-3.168;2023-04-03T09:19:55;8;8;
73565;PMS5003;61846;52.970;-3.168;2023-04-03T09:22:20;6;5;
73565;PMS5003;61846;52.970;-3.168;2023-04-03T09:24:45;7;5;
73565;PMS5003;61846;52.970;-3.168;2023-04-03T09:27:11;9;7;
73565;PMS5003;61846;52.970;-3.168;2023-04-03T09:29:38;8;8;
73565;PMS5003;61846;52.970;-3.168;2023-04-03T09:32:02;15;12;
73565;PMS5003;61846;52.970;-3.168;2023-04-03T09:34:28;6;6;
73565;PMS5003;61846;52.970;-3.168;2023-04-03T09:36:53;11;4;
73565;PMS5003;61846;52.970;-3.168;2023-04-03T09:39:19;7;6;
73565;PMS5003;61846;52.970;-3.168;2023-04-03T09:46:34;7;7;
73565;PMS5003;61846;52.970;-3.168;2023-04-03T09:49:01;9;7;
73565;PMS5003;61846;52.970;-3.168;2023-04-03T09:51:25;12;7;
73565;PMS5003;61846;52.970;-3.168;2023-04-03T09:53:51;8;5;
73565;PMS5003;61846;52.970;-3.168;2023-04-03T09:56:20;13;12;
73565;PMS5003;61846;52.970;-3.168;2023-04-03T09:58:42;4;4;
73565;PMS5003;61846;52.970;-3.168;2023-04-03T10:01:09;6;6;
73565;PMS5003;61846;52.970;-3.168;2023-04-03T10:03:34;8;8;
73565;PMS5003;61846;52.970;-3.168;2023-04-03T10:05:59;7;4;
73565;PMS5003;61846;52.970;-3.168;2023-04-03T10:08:25;4;3;
73565;PMS5003;61846;52.970;-3.168;2023-04-03T10:13:16;9;5;
73565;PMS5003;61846;52.970;-3.168;2023-04-03T10:15:42;7;5;
73565;PMS5003;61846;52.970;-3.168;2023-04-03T10:18:07;7;5;
73565;PMS5003;61846;52.970;-3.168;2023-04-03T10:20:33;9;7;
73565;PMS5003;61846;52.970;-3.168;2023-04-03T10:23:01;6;5;
73565;PMS5003;61846;52.970;-3.168;2023-04-03T10:25:25;8;6;
73565;PMS5003;61846;52.970;-3.168;2023-04-03T10:27:52;6;5;
73565;PMS5003;61846;52.970;-3.168;2023-04-03T10:30:19;6;4;
73565;PMS5003;61846;52.970;-3.168;2023-04-03T10:32:45;9;6;
73565;PMS5003;61846;52.970;-3.168;2023-04-03T10:35:08;8;5;
73565;PMS5003;61846;52.970;-3.168;2023-04-03T10:37:34;5;4;
73565;PMS5003;61846;52.970;-3.168;2023-04-03T10:39:57;6;4;
73565;PMS5003;61846;52.970;-3.168;2023-04-03T10:42:24;7;5;
73565;PMS5003;61846;52.970;-3.168;2023-04-03T10:44:52;5;4;
73565;PMS5003;61846;52.970;-3.168;2023-04-03T10:47:14;6;5;
73565;PMS5003;61846;52.970;-3.168;2023-04-03T10:49:41;5;3;
73565;PMS5003;61846;52.970;-3.168;2023-04-03T10:52:06;4;4;
73565;PMS5003;61846;52.970;-3.168;2023-04-03T10:54:30;4;3;
73565;PMS5003;61846;52.970;-3.168;2023-04-03T10:56:56;8;6;
73565;PMS5003;61846;52.970;-3.168;2023-04-03T10:59:22;5;4;
73565;PMS5003;61846;52.970;-3.168;2023-04-03T11:01:48;6;3;
73565;PMS5003;61846;52.970;-3.168;2023-04-03T11:04:12;7;4;
73565;PMS5003;61846;52.970;-3.168;2023-04-03T11:06:38;4;3;
73565;PMS5003;61846;52.970;-3.168;2023-04-03T11:09:03;3;3;
73565;PMS5003;61846;52.970;-3.168;2023-04-03T11:11:29;5;5;
73565;PMS5003;61846;52.970;-3.168;2023-04-03T11:13:55;5;5;
73565;PMS5003;61846;52.970;-3.168;2023-04-03T11:16:21;4;4;
73565;PMS5003;61846;52.970;-3.168;2023-04-03T11:18:46;4;3;
73565;PMS5003;61846;52.970;-3.168;2023-04-03T11:21:12;7;4;
73565;PMS5003;61846;52.970;-3.168;2023-04-03T11:23:36;8;5;
73565;PMS5003;61846;52.970;-3.168;2023-04-03T11:26:06;5;4;
73565;PMS5003;61846;52.970;-3.168;2023-04-03T11:28:27;4;4;
73565;PMS5003;61846;52.970;-3.168;2023-04-03T11:30:53;4;4;
73565;PMS5003;61846;52.970;-3.168;2023-04-03T11:33:21;3;3;
73565;PMS5003;61846;52.970;-3.168;2023-04-03T11:35:44;5;4;
73565;PMS5003;61846;52.970;-3.168;2023-04-03T11:38:13;6;4;
73565;PMS5003;61846;52.970;-3.168;2023-04-03T11:40:34;4;3;
73565;PMS5003;61846;52.970;-3.168;2023-04-03T11:43:04;7;4;
73565;PMS5003;61846;52.970;-3.168;2023-04-03T11:45:27;5;5;
73565;PMS5003;61846;52.970;-3.168;2023-04-03T11:47:51;4;4;
73565;PMS5003;61846;52.970;-3.168;2023-04-03T11:57:43;5;5;
73565;PMS5003;61846;52.970;-3.168;2023-04-03T11:59:57;9;6;
73565;PMS5003;61846;52.970;-3.168;2023-04-03T12:07:15;7;5;
73565;PMS5003;61846;52.970;-3.168;2023-04-03T12:14:30;7;5;
73565;PMS5003;61846;52.970;-3.168;2023-04-03T12:16:56;7;5;
73565;PMS5003;61846;52.970;-3.168;2023-04-03T12:26:38;6;5;
73565;PMS5003;61846;52.970;-3.168;2023-04-03T12:29:09;9;7;
73565;PMS5003;61846;52.970;-3.168;2023-04-03T12:31:32;10;9;
73565;PMS5003;61846;52.970;-3.168;2023-04-03T12:34:02;8;8;
73565;PMS5003;61846;52.970;-3.168;2023-04-03T12:36:22;7;6;
73565;PMS5003;61846;52.970;-3.168;2023-04-03T12:38:54;11;10;
73565;PMS5003;61846;52.970;-3.168;2023-04-03T12:41:15;10;8;
73565;PMS5003;61846;52.970;-3.168;2023-04-03T12:43:40;7;6;
73565;PMS5003;61846;52.970;-3.168;2023-04-03T12:46:02;16;9;
73565;PMS5003;61846;52.970;-3.168;2023-04-03T12:48:28;6;6;
73565;PMS5003;61846;52.970;-3.168;2023-04-03T12:50:52;12;8;
73565;PMS5003;61846;52.970;-3.168;2023-04-03T12:53:18;5;5;
73565;PMS5003;61846;52.970;-3.168;2023-04-03T12:55:43;4;4;
73565;PMS5003;61846;52.970;-3.168;2023-04-03T12:58:15;8;6;
73565;PMS5003;61846;52.970;-3.168;2023-04-03T13:00:35;6;4;
73565;PMS5003;61846;52.970;-3.168;2023-04-03T13:03:00;7;6;
73565;PMS5003;61846;52.970;-3.168;2023-04-03T13:05:25;6;6;
73565;PMS5003;61846;52.970;-3.168;2023-04-03T13:07:52;8;5;
73565;PMS5003;61846;52.970;-3.168;2023-04-03T13:10:16;8;7;
73565;PMS5003;61846;52.970;-3.168;2023-04-03T13:12:46;6;6;
73565;PMS5003;61846;52.970;-3.168;2023-04-03T13:15:12;7;4;
73565;PMS5003;61846;52.970;-3.168;2023-04-03T13:17:32;7;6;
73565;PMS5003;61846;52.970;-3.168;2023-04-03T13:22:25;8;7;
73565;PMS5003;61846;52.970;-3.168;2023-04-03T13:24:49;9;7;
73565;PMS5003;61846;52.970;-3.168;2023-04-03T13:27:13;9;7;
73565;PMS5003;61846;52.970;-3.168;2023-04-03T13:29:39;13;7;
73565;PMS5003;61846;52.970;-3.168;2023-04-03T13:32:05;10;8;
73565;PMS5003;61846;52.970;-3.168;2023-04-03T13:34:35;7;6;
73565;PMS5003;61846;52.970;-3.168;2023-04-03T13:36:56;6;5;
73565;PMS5003;61846;52.970;-3.168;2023-04-03T13:39:22;5;4;
73565;PMS5003;61846;52.970;-3.168;2023-04-03T13:41:47;8;6;
73565;PMS5003;61846;52.970;-3.168;2023-04-03T13:44:16;6;5;
73565;PMS5003;61846;52.970;-3.168;2023-04-03T13:46:37;10;8;
73565;PMS5003;61846;52.970;-3.168;2023-04-03T13:49:09;8;6;
73565;PMS5003;61846;52.970;-3.168;2023-04-03T13:51:28;9;8;
73565;PMS5003;61846;52.970;-3.168;2023-04-03T13:53:55;5;5;
73565;PMS5003;61846;52.970;-3.168;2023-04-03T13:56:21;9;6;
73565;PMS5003;61846;52.970;-3.168;2023-04-03T14:01:11;5;5;
73565;PMS5003;61846;52.970;-3.168;2023-04-03T14:03:39;7;5;
73565;PMS5003;61846;52.970;-3.168;2023-04-03T14:06:01;6;6;
73565;PMS5003;61846;52.970;-3.168;2023-04-03T14:08:26;9;9;
73565;PMS5003;61846;52.970;-3.168;2023-04-03T14:10:51;9;8;
73565;PMS5003;61846;52.970;-3.168;2023-04-03T14:13:17;8;8;
73565;PMS5003;61846;52.970;-3.168;2023-04-03T14:15:42;14;9;
73565;PMS5003;61846;52.970;-3.168;2023-04-03T14:18:09;7;6;
73565;PMS5003;61846;52.970;-3.168;2023-04-03T14:20:32;7;7;
73565;PMS5003;61846;52.970;-3.168;2023-04-03T14:22:57;11;8;
73565;PMS5003;61846;52.970;-3.168;2023-04-03T14:25:23;9;7;
73565;PMS5003;61846;52.970;-3.168;2023-04-03T14:27:49;5;5;
73565;PMS5003;61846;52.970;-3.168;2023-04-03T14:30:15;6;6;
73565;PMS5003;61846;52.970;-3.168;2023-04-03T14:32:39;5;5;
73565;PMS5003;61846;52.970;-3.168;2023-04-03T14:35:04;7;6;
73565;PMS5003;61846;52.970;-3.168;2023-04-03T14:37:30;8;5;
73565;PMS5003;61846;52.970;-3.168;2023-04-03T14:39:56;7;5;
73565;PMS5003;61846;52.970;-3.168;2023-04-03T14:42:22;13;5;
73565;PMS5003;61846;52.970;-3.168;2023-04-03T14:44:46;6;6;
73565;PMS5003;61846;52.970;-3.168;2023-04-03T14:47:12;4;3;
73565;PMS5003;61846;52.970;-3.168;2023-04-03T14:49:37;11;7;
73565;PMS5003;61846;52.970;-3.168;2023-04-03T14:52:02;10;9;
73565;PMS5003;61846;52.970;-3.168;2023-04-03T14:54:27;9;7;
73565;PMS5003;61846;52.970;-3.168;2023-04-03T14:56:53;9;7;
73565;PMS5003;61846;52.970;-3.168;2023-04-03T14:59:18;9;7;
73565;PMS5003;61846;52.970;-3.168;2023-04-03T15:01:44;8;5;
73565;PMS5003;61846;52.970;-3.168;2023-04-03T15:04:10;7;7;
73565;PMS5003;61846;52.970;-3.168;2023-04-03T15:06:34;9;6;
73565;PMS5003;61846;52.970;-3.168;2023-04-03T15:09:00;5;5;
73565;PMS5003;61846;52.970;-3.168;2023-04-03T15:11:25;9;5;
73565;PMS5003;61846;52.970;-3.168;2023-04-03T15:13:51;6;5;
73565;PMS5003;61846;52.970;-3.168;2023-04-03T15:16:17;8;7;
73565;PMS5003;61846;52.970;-3.168;2023-04-03T15:18:41;10;7;
73565;PMS5003;61846;52.970;-3.168;2023-04-03T15:21:06;7;7;
73565;PMS5003;61846;52.970;-3.168;2023-04-03T15:23:32;5;5;
73565;PMS5003;61846;52.970;-3.168;2023-04-03T15:25:57;9;6;
73565;PMS5003;61846;52.970;-3.168;2023-04-03T15:28:25;10;8;
73565;PMS5003;61846;52.970;-3.168;2023-04-03T15:30:48;8;8;
73565;PMS5003;61846;52.970;-3.168;2023-04-03T15:33:13;9;7;
73565;PMS5003;61846;52.970;-3.168;2023-04-03T15:35:38;8;8;
73565;PMS5003;61846;52.970;-3.168;2023-04-03T15:38:04;6;5;
73565;PMS5003;61846;52.970;-3.168;2023-04-03T15:40:29;6;6;
73565;PMS5003;61846;52.970;-3.168;2023-04-03T15:42:54;8;7;
73565;PMS5003;61846;52.970;-3.168;2023-04-03T15:45:20;11;11;
73565;PMS5003;61846;52.970;-3.168;2023-04-03T15:47:45;9;8;
73565;PMS5003;61846;52.970;-3.168;2023-04-03T15:50:11;8;7;
73565;PMS5003;61846;52.970;-3.168;2023-04-03T15:52:36;9;5;
73565;PMS5003;61846;52.970;-3.168;2023-04-03T15:55:02;10;10;
73565;PMS5003;61846;52.970;-3.168;2023-04-03T15:57:27;10;7;
73565;PMS5003;61846;52.970;-3.168;2023-04-03T15:59:52;12;8;
73565;PMS5003;61846;52.970;-3.168;2023-04-03T16:02:18;13;8;
73565;PMS5003;61846;52.970;-3.168;2023-04-03T16:04:43;10;8;
73565;PMS5003;61846;52.970;-3.168;2023-04-03T16:07:08;8;8;
73565;PMS5003;61846;52.970;-3.168;2023-04-03T16:09:34;8;8;
73565;PMS5003;61846;52.970;-3.168;2023-04-03T16:11:59;4;4;
73565;PMS5003;61846;52.970;-3.168;2023-04-03T16:14:25;9;6;
73565;PMS5003;61846;52.970;-3.168;2023-04-03T16:16:50;8;8;
73565;PMS5003;61846;52.970;-3.168;2023-04-03T16:19:16;11;10;
73565;PMS5003;61846;52.970;-3.168;2023-04-03T16:21:41;8;7;
73565;PMS5003;61846;52.970;-3.168;2023-04-03T16:24:06;10;8;
73565;PMS5003;61846;52.970;-3.168;2023-04-03T16:26:32;9;9;
73565;PMS5003;61846;52.970;-3.168;2023-04-03T16:28:57;10;9;
73565;PMS5003;61846;52.970;-3.168;2023-04-03T16:31:24;17;14;
73565;PMS5003;61846;52.970;-3.168;2023-04-03T16:33:48;6;6;
73565;PMS5003;61846;52.970;-3.168;2023-04-03T16:36:14;6;6;
73565;PMS5003;61846;52.970;-3.168;2023-04-03T16:38:39;10;8;
73565;PMS5003;61846;52.970;-3.168;2023-04-03T16:41:05;9;9;
73565;PMS5003;61846;52.970;-3.168;2023-04-03T16:43:30;8;7;
73565;PMS5003;61846;52.970;-3.168;2023-04-03T16:45:55;9;9;
73565;PMS5003;61846;52.970;-3.168;2023-04-03T16:48:20;13;10;
73565;PMS5003;61846;52.970;-3.168;2023-04-03T16:50:46;8;8;